Time;durP1;ratioP1;P1;durP2;ratioP2;P2;SDS_P1;SDS_P2;PMS_P1;PMS_P2;Temp;Humidity;BMP_temperature;BMP_pressure;BME280_temperature;BME280_humidity;BME280_pressure;Samples;Min_cycle;Max_cycle;Signal;HPM_P1;HPM_P2
2021/06/20 00:00:09;;;;;;;3.40;0.65;;;25.40;74.80;25.10;99228.00;;;;342955;28;85500;-95
2021/06/20 00:00:28;;;;;;;2.72;0.50;;;25.40;74.80;25.00;99230.00;;;;339918;28;92626;-96
2021/06/20 00:00:40;;;;;;;3.35;0.70;;;25.40;75.00;25.00;99231.00;;;;341742;28;84028;-95
2021/06/20 00:00:52;;;;;;;3.50;0.90;;;25.40;75.00;25.10;99232.00;;;;341448;28;90945;-95
2021/06/20 00:01:04;;;;;;;5.05;0.90;;;25.30;74.90;24.90;99225.00;;;;338876;28;85080;-96
2021/06/20 00:01:16;;;;;;;3.72;0.80;;;25.40;74.90;25.00;99220.00;;;;339982;28;93023;-95
2021/06/20 00:01:28;;;;;;;2.10;0.57;;;25.30;75.00;25.20;99220.00;;;;337760;28;83542;-95
2021/06/20 00:01:40;;;;;;;2.33;0.50;;;25.30;75.00;25.40;99222.00;;;;342573;28;89932;-96
2021/06/20 00:01:52;;;;;;;2.80;0.55;;;25.40;75.10;25.30;99222.00;;;;339862;28;83535;-94
2021/06/20 00:02:04;;;;;;;4.25;0.70;;;25.40;75.10;25.20;99214.00;;;;343927;28;90940;-95
2021/06/20 00:02:16;;;;;;;4.40;0.70;;;25.40;75.10;24.90;99216.00;;;;340278;28;83536;-94
2021/06/20 00:02:28;;;;;;;4.60;0.90;;;25.40;75.20;24.80;99218.00;;;;341336;28;91436;-96
2021/06/20 00:02:39;;;;;;;4.63;1.00;;;25.40;75.20;24.80;99206.00;;;;341733;28;83482;-96
2021/06/20 00:02:52;;;;;;;4.20;1.00;;;25.40;75.20;24.70;99209.00;;;;339808;28;90787;-95
2021/06/20 00:03:05;;;;;;;2.80;0.80;;;25.40;75.20;24.80;99220.00;;;;340100;28;85144;-95
2021/06/20 00:03:16;;;;;;;2.35;0.63;;;25.30;75.20;24.90;99208.00;;;;341259;28;91929;-95
2021/06/20 00:03:28;;;;;;;2.47;0.52;;;25.30;75.10;24.70;99210.00;;;;340411;28;83523;-96
2021/06/20 00:03:40;;;;;;;4.18;0.50;;;25.30;75.10;24.70;99213.00;;;;340000;28;91238;-95
2021/06/20 00:03:52;;;;;;;4.40;0.60;;;25.30;75.10;24.80;99215.00;;;;340325;28;85045;-95
2021/06/20 00:04:04;;;;;;;4.57;0.52;;;25.30;75.10;24.90;99218.00;;;;341291;28;92170;-95
2021/06/20 00:04:16;;;;;;;3.78;0.60;;;25.30;75.10;25.00;99222.00;;;;341790;28;85638;-95
2021/06/20 00:04:28;;;;;;;10.13;0.80;;;25.30;75.20;25.00;99223.00;;;;340261;28;91111;-94
2021/06/20 00:04:40;;;;;;;10.88;0.85;;;25.30;75.10;25.10;99223.00;;;;339416;28;84145;-95
2021/06/20 00:04:52;;;;;;;4.85;0.82;;;25.30;75.10;25.10;99221.00;;;;339060;28;91517;-96
2021/06/20 00:05:09;;;;;;;3.25;0.80;;;25.30;75.30;25.00;99221.00;;;;340884;28;83659;-92
2021/06/20 00:05:35;;;;;;;2.13;0.60;;;25.30;75.30;25.10;99219.00;;;;341314;28;91239;-95
2021/06/20 00:05:55;;;;;;;4.32;0.77;;;25.40;75.50;25.00;99214.00;;;;340485;28;84313;-95
2021/06/20 00:06:31;;;;;;;4.70;0.90;;;25.30;75.50;24.90;99206.00;;;;342104;28;90348;-94
2021/06/20 00:06:49;;;;;;;2.33;0.50;;;25.30;75.50;25.10;99214.00;;;;342348;28;84120;-91
2021/06/20 00:07:01;;;;;;;2.88;0.70;;;25.30;75.50;25.00;99212.00;;;;344468;28;90686;-90
2021/06/20 00:07:13;;;;;;;2.60;0.65;;;25.30;75.60;24.90;99213.00;;;;342305;28;83657;-92
2021/06/20 00:07:25;;;;;;;2.63;0.63;;;25.30;75.70;24.80;99202.00;;;;344669;28;90537;-90
2021/06/20 00:07:38;;;;;;;4.20;0.88;;;25.30;75.70;24.60;99212.00;;;;342219;28;84494;-91
2021/06/20 00:07:50;;;;;;;5.18;0.90;;;25.30;75.90;24.60;99218.00;;;;345222;28;90328;-91
2021/06/20 00:08:03;;;;;;;4.95;1.05;;;25.20;75.90;24.50;99216.00;;;;340660;28;83790;-90
2021/06/20 00:08:15;;;;;;;3.65;0.80;;;25.20;75.80;24.70;99216.00;;;;342614;28;90552;-95
2021/06/20 00:08:27;;;;;;;5.68;0.90;;;25.20;75.90;24.70;99219.00;;;;340864;28;84089;-94
2021/06/20 00:08:39;;;;;;;5.65;0.70;;;25.20;76.00;24.80;99214.00;;;;341911;28;91245;-90
2021/06/20 00:08:53;;;;;;;4.50;0.88;;;25.20;75.90;24.90;99213.00;;;;340815;28;84042;-91
2021/06/20 00:09:07;;;;;;;3.17;0.77;;;25.20;75.90;24.70;99220.00;;;;341833;28;90746;-91
2021/06/20 00:09:20;;;;;;;2.63;0.77;;;25.20;76.20;24.90;99212.00;;;;341013;28;84207;-91
2021/06/20 00:09:32;;;;;;;3.75;0.70;;;25.20;76.10;24.70;99207.00;;;;341916;28;91188;-91
2021/06/20 00:09:44;;;;;;;4.15;0.65;;;25.20;76.20;24.90;99209.00;;;;343489;28;83355;-91
2021/06/20 00:09:55;;;;;;;4.22;0.70;;;25.20;76.10;24.90;99210.00;;;;344637;28;90656;-90
2021/06/20 00:10:08;;;;;;;2.85;0.63;;;25.20;76.20;25.00;99198.00;;;;342169;28;83871;-89
2021/06/20 00:10:23;;;;;;;2.13;0.63;;;25.20;76.10;24.90;99205.00;;;;344397;28;91913;-90
2021/06/20 00:10:37;;;;;;;3.67;0.70;;;25.20;76.10;24.80;99212.00;;;;342274;28;84236;-89
2021/06/20 00:10:49;;;;;;;3.42;0.70;;;25.20;76.20;25.00;99205.00;;;;342283;28;90348;-91
2021/06/20 00:11:01;;;;;;;3.10;0.90;;;25.10;76.10;25.00;99200.00;;;;343263;28;83952;-91
2021/06/20 00:11:13;;;;;;;2.65;0.77;;;25.20;76.20;25.00;99207.00;;;;341708;28;91010;-91
2021/06/20 00:11:26;;;;;;;4.07;1.10;;;25.20;76.10;24.80;99208.00;;;;342216;28;84167;-92
2021/06/20 00:11:44;;;;;;;4.20;1.05;;;25.20;76.10;24.70;99212.00;;;;340511;28;91473;-91
2021/06/20 00:11:56;;;;;;;3.70;0.90;;;25.20;76.30;24.90;99209.00;;;;343589;28;83777;-91
2021/06/20 00:12:08;;;;;;;4.50;0.88;;;25.20;76.30;24.70;99208.00;;;;341851;28;91156;-92
2021/06/20 00:12:20;;;;;;;3.90;0.65;;;25.20;76.20;24.80;99208.00;;;;344695;28;84081;-92
2021/06/20 00:12:32;;;;;;;3.78;0.70;;;25.10;76.20;25.00;99214.00;;;;340416;28;92000;-91
2021/06/20 00:12:44;;;;;;;3.83;0.70;;;25.20;76.10;25.00;99208.00;;;;345061;28;83165;-91
2021/06/20 00:12:57;;;;;;;3.58;0.70;;;25.20;76.30;24.70;99211.00;;;;341753;28;91726;-90
2021/06/20 00:13:10;;;;;;;3.22;0.68;;;25.20;76.40;24.70;99210.00;;;;346239;28;83212;-91
2021/06/20 00:13:22;;;;;;;2.85;0.57;;;25.20;76.60;24.90;99205.00;;;;340509;28;90869;-91
2021/06/20 00:13:34;;;;;;;6.13;0.70;;;25.20;76.60;24.90;99212.00;;;;344019;28;82259;-89
2021/06/20 00:13:46;;;;;;;5.47;0.68;;;25.20;76.80;24.80;99210.00;;;;340338;28;91060;-91
2021/06/20 00:13:57;;;;;;;5.47;0.70;;;25.20;76.40;24.70;99212.00;;;;342125;28;84137;-90
2021/06/20 00:14:10;;;;;;;3.95;0.70;;;25.20;76.60;24.60;99206.00;;;;341778;28;91505;-90
2021/06/20 00:14:22;;;;;;;4.45;0.60;;;25.20;76.70;24.70;99214.00;;;;342339;28;83800;-90
2021/06/20 00:14:34;;;;;;;4.07;0.60;;;25.20;76.50;24.90;99212.00;;;;339197;28;91779;-91
2021/06/20 00:14:46;;;;;;;5.28;0.60;;;25.10;76.40;25.00;99215.00;;;;340956;28;83546;-91
2021/06/20 00:14:57;;;;;;;5.50;0.70;;;25.20;76.60;25.10;99209.00;;;;340870;28;88549;-91
2021/06/20 00:15:13;;;;;;;3.55;0.63;;;25.20;76.60;25.00;99205.00;;;;345005;28;84887;-93
2021/06/20 00:15:26;;;;;;;4.40;0.70;;;25.20;76.60;25.00;99210.00;;;;340613;28;91024;-89
2021/06/20 00:15:39;;;;;;;4.20;0.60;;;25.20;76.70;25.00;99209.00;;;;342286;28;83879;-91
2021/06/20 00:15:51;;;;;;;4.00;0.50;;;25.20;76.60;24.90;99205.00;;;;339235;28;90737;-91
2021/06/20 00:16:04;;;;;;;3.42;0.70;;;25.20;76.40;24.80;99207.00;;;;342246;28;83200;-91
2021/06/20 00:16:15;;;;;;;4.07;0.70;;;25.20;76.60;24.90;99210.00;;;;341979;28;90323;-91
2021/06/20 00:16:27;;;;;;;4.18;0.65;;;25.20;76.60;24.80;99205.00;;;;342278;28;82094;-90
2021/06/20 00:16:39;;;;;;;4.65;0.75;;;25.20;76.50;24.90;99212.00;;;;337967;28;91609;-91
2021/06/20 00:16:51;;;;;;;4.47;0.63;;;25.20;76.60;24.80;99209.00;;;;341474;28;84894;-91
2021/06/20 00:17:03;;;;;;;5.10;0.60;;;25.20;76.60;24.90;99209.00;;;;342348;28;89718;-91
2021/06/20 00:17:16;;;;;;;4.10;0.60;;;25.20;76.60;25.00;99207.00;;;;343388;28;83716;-91
2021/06/20 00:17:27;;;;;;;2.83;0.57;;;25.20;76.60;25.10;99208.00;;;;342029;28;90462;-92
2021/06/20 00:17:40;;;;;;;2.22;0.52;;;25.20;76.50;25.10;99213.00;;;;346378;28;83877;-91
2021/06/20 00:17:52;;;;;;;2.97;0.68;;;25.30;76.50;25.20;99211.00;;;;341896;28;90980;-92
2021/06/20 00:18:04;;;;;;;3.22;0.88;;;25.30;76.60;25.20;99216.00;;;;343676;28;83709;-91
2021/06/20 00:18:16;;;;;;;2.88;0.80;;;25.30;76.50;25.10;99216.00;;;;344500;28;90551;-90
2021/06/20 00:18:28;;;;;;;3.80;0.82;;;25.20;76.50;25.20;99209.00;;;;343543;28;83744;-91
2021/06/20 00:18:40;;;;;;;7.53;0.98;;;25.30;76.50;25.10;99212.00;;;;340485;28;92097;-94
2021/06/20 00:18:52;;;;;;;8.93;0.80;;;25.20;76.60;25.10;99209.00;;;;345011;28;84205;-91
2021/06/20 00:19:04;;;;;;;7.88;0.65;;;25.20;76.50;25.10;99203.00;;;;343103;28;90590;-91
2021/06/20 00:19:16;;;;;;;4.93;0.50;;;25.30;76.50;25.10;99215.00;;;;343409;28;83574;-90
2021/06/20 00:19:28;;;;;;;3.47;0.55;;;25.30;76.70;25.00;99208.00;;;;344528;28;91008;-91
2021/06/20 00:19:40;;;;;;;3.63;0.52;;;25.30;76.70;24.80;99200.00;;;;345017;28;83582;-90
2021/06/20 00:19:52;;;;;;;4.45;0.95;;;25.20;76.70;24.90;99208.00;;;;344155;28;90791;-91
2021/06/20 00:20:06;;;;;;;3.55;0.98;;;25.20;76.70;24.90;99207.00;;;;342754;28;83771;-91
2021/06/20 00:20:19;;;;;;;2.77;0.53;;;25.20;76.70;24.90;99203.00;;;;342670;28;91384;-91
2021/06/20 00:20:33;;;;;;;3.58;0.40;;;25.20;76.70;25.00;99208.00;;;;343645;28;83456;-91
2021/06/20 00:20:47;;;;;;;4.18;0.65;;;25.20;76.60;25.00;99204.00;;;;340498;28;92052;-91
2021/06/20 00:20:59;;;;;;;4.68;0.90;;;25.20;76.60;25.10;99205.00;;;;343560;28;84570;-91
2021/06/20 00:21:11;;;;;;;5.25;1.05;;;25.20;76.50;25.10;99210.00;;;;340399;28;90793;-91
2021/06/20 00:21:22;;;;;;;5.90;1.02;;;25.20;76.50;25.10;99203.00;;;;342153;28;83886;-89
2021/06/20 00:21:35;;;;;;;5.40;1.08;;;25.20;76.60;25.10;99213.00;;;;343278;28;91155;-91
2021/06/20 00:21:47;;;;;;;3.83;1.00;;;25.20;76.60;25.00;99206.00;;;;340926;28;83753;-92
2021/06/20 00:21:59;;;;;;;4.85;0.95;;;25.30;76.60;24.90;99205.00;;;;344654;28;91495;-91
2021/06/20 00:22:11;;;;;;;4.85;0.75;;;25.20;76.50;25.00;99219.00;;;;340955;28;83882;-90
2021/06/20 00:22:23;;;;;;;4.18;0.77;;;25.20;76.50;25.20;99202.00;;;;341776;28;91592;-92
2021/06/20 00:22:35;;;;;;;2.60;0.68;;;25.20;76.40;25.30;99213.00;;;;340850;28;83512;-89
2021/06/20 00:22:47;;;;;;;2.38;0.50;;;25.30;76.70;25.40;99206.00;;;;341325;28;91840;-90
2021/06/20 00:22:59;;;;;;;3.38;0.50;;;25.30;76.70;25.20;99208.00;;;;344422;28;84571;-91
2021/06/20 00:23:11;;;;;;;5.65;0.98;;;25.30;76.60;25.10;99205.00;;;;341892;28;92384;-91
2021/06/20 00:23:23;;;;;;;6.30;1.20;;;25.40;76.50;25.20;99213.00;;;;340721;28;83608;-89
2021/06/20 00:23:35;;;;;;;4.82;1.15;;;25.40;76.60;25.10;99204.00;;;;341997;28;90956;-92
2021/06/20 00:23:47;;;;;;;4.15;1.00;;;25.30;76.60;24.90;99208.00;;;;340813;28;83868;-91
2021/06/20 00:23:59;;;;;;;3.42;0.88;;;25.30;76.60;24.80;99206.00;;;;343273;28;91118;-91
2021/06/20 00:24:11;;;;;;;3.83;0.80;;;25.30;76.70;24.70;99207.00;;;;342294;28;83488;-91
2021/06/20 00:24:23;;;;;;;6.70;1.00;;;25.30;76.70;24.70;99203.00;;;;343011;28;90836;-90
2021/06/20 00:24:35;;;;;;;7.60;1.00;;;25.20;76.60;24.80;99206.00;;;;342292;28;85113;-91
2021/06/20 00:24:47;;;;;;;6.18;1.02;;;25.20;76.70;24.90;99205.00;;;;340440;28;92079;-92
2021/06/20 00:24:59;;;;;;;4.93;0.80;;;25.20;76.60;25.00;99204.00;;;;342165;28;83765;-90
2021/06/20 00:25:12;;;;;;;5.05;0.70;;;25.30;76.70;24.90;99200.00;;;;341947;28;92453;-91
2021/06/20 00:25:24;;;;;;;3.78;0.70;;;25.30;76.80;24.90;99204.00;;;;344790;28;84243;-91
2021/06/20 00:25:36;;;;;;;2.42;0.75;;;25.30;76.70;24.90;99201.00;;;;341927;28;91518;-92
2021/06/20 00:25:48;;;;;;;2.13;0.65;;;25.30;76.70;24.90;99202.00;;;;344850;28;87344;-90
2021/06/20 00:26:00;;;;;;;3.80;0.50;;;25.30;76.80;24.90;99197.00;;;;341644;28;90699;-91
2021/06/20 00:26:12;;;;;;;4.55;0.70;;;25.30;77.40;25.10;99201.00;;;;342307;28;83496;-90
2021/06/20 00:26:24;;;;;;;5.18;0.82;;;25.30;76.80;24.90;99209.00;;;;340696;28;88279;-91
2021/06/20 00:26:35;;;;;;;4.18;0.93;;;25.30;76.80;24.90;99201.00;;;;340809;28;83803;-91
2021/06/20 00:26:47;;;;;;;3.45;0.77;;;25.30;76.90;24.80;99200.00;;;;342337;28;88852;-92
2021/06/20 00:26:59;;;;;;;3.28;1.00;;;25.30;76.80;24.70;99186.00;;;;344903;28;83674;-91
2021/06/20 00:27:11;;;;;;;3.42;1.00;;;25.30;76.90;24.70;99197.00;;;;341889;28;91039;-91
2021/06/20 00:27:23;;;;;;;4.75;1.10;;;25.30;77.00;24.80;99191.00;;;;344913;28;83740;-91
2021/06/20 00:27:35;;;;;;;4.38;0.90;;;25.20;77.00;24.70;99186.00;;;;341945;28;91099;-91
2021/06/20 00:27:47;;;;;;;3.03;0.85;;;25.30;77.00;24.60;99182.00;;;;344864;28;83000;-91
2021/06/20 00:27:59;;;;;;;3.30;0.70;;;25.20;77.00;24.50;99186.00;;;;340683;28;91602;-91
2021/06/20 00:28:11;;;;;;;3.50;0.73;;;25.20;77.00;24.50;99184.00;;;;346370;28;83881;-91
2021/06/20 00:28:23;;;;;;;5.70;1.15;;;25.20;77.00;24.40;99184.00;;;;341618;28;91169;-91
2021/06/20 00:28:35;;;;;;;5.80;1.20;;;25.20;77.70;24.40;99180.00;;;;342160;28;85403;-92
2021/06/20 00:28:47;;;;;;;5.13;0.90;;;25.20;77.20;24.40;99181.00;;;;341263;28;91887;-93
2021/06/20 00:28:59;;;;;;;4.65;0.95;;;25.10;77.10;24.60;99174.00;;;;344319;28;84171;-91
2021/06/20 00:29:11;;;;;;;3.78;0.70;;;25.10;77.60;24.80;99183.00;;;;341839;28;92400;-92
2021/06/20 00:29:22;;;;;;;2.90;0.50;;;25.10;77.10;24.90;99173.00;;;;344740;28;83844;-90
2021/06/20 00:29:35;;;;;;;3.25;0.50;;;25.10;77.10;25.00;99179.00;;;;343010;28;89403;-91
2021/06/20 00:29:47;;;;;;;3.08;0.60;;;25.20;77.10;24.90;99173.00;;;;343434;28;83991;-91
2021/06/20 00:29:59;;;;;;;4.15;0.70;;;25.20;77.00;24.90;99182.00;;;;344603;28;90483;-89
2021/06/20 00:30:17;;;;;;;4.93;0.90;;;25.20;77.00;25.00;99172.00;;;;342302;28;83756;-91
2021/06/20 00:30:30;;;;;;;7.18;0.88;;;25.20;77.00;25.00;99175.00;;;;341898;28;91093;-91
2021/06/20 00:30:42;;;;;;;7.72;0.80;;;25.20;77.20;24.90;99168.00;;;;345343;28;82427;-92
2021/06/20 00:30:54;;;;;;;6.05;0.80;;;25.20;77.20;24.90;99177.00;;;;343557;28;88886;-91
2021/06/20 00:31:06;;;;;;;3.90;0.60;;;25.20;77.30;25.00;99173.00;;;;343537;28;83693;-88
2021/06/20 00:31:18;;;;;;;2.47;0.70;;;25.20;77.80;25.10;99175.00;;;;343281;28;90692;-90
2021/06/20 00:31:31;;;;;;;2.50;0.73;;;25.20;77.70;25.20;99177.00;;;;344790;28;82249;-91
2021/06/20 00:31:42;;;;;;;3.85;0.82;;;25.20;77.10;25.20;99180.00;;;;343077;28;90861;-92
2021/06/20 00:31:55;;;;;;;4.47;0.73;;;25.20;77.10;25.10;99178.00;;;;341764;28;83791;-91
2021/06/20 00:32:07;;;;;;;4.18;0.60;;;25.20;77.70;25.00;99176.00;;;;343015;28;90391;-91
2021/06/20 00:32:19;;;;;;;4.05;0.52;;;25.20;77.00;25.10;99175.00;;;;343384;28;85191;-91
2021/06/20 00:32:31;;;;;;;3.58;0.60;;;25.30;77.10;25.20;99175.00;;;;340555;28;91287;-91
2021/06/20 00:32:43;;;;;;;2.58;0.75;;;25.20;77.00;25.10;99176.00;;;;342244;28;82974;-94
2021/06/20 00:32:55;;;;;;;4.03;0.95;;;25.30;77.00;25.00;99174.00;;;;341694;28;91944;-93
2021/06/20 00:33:07;;;;;;;5.57;1.13;;;25.30;77.10;25.00;99170.00;;;;344524;28;83323;-95
2021/06/20 00:33:19;;;;;;;6.47;1.00;;;25.30;77.10;25.00;99180.00;;;;343473;28;90999;-93
2021/06/20 00:33:31;;;;;;;4.85;0.77;;;25.30;77.20;25.00;99167.00;;;;341678;28;84776;-96
2021/06/20 00:33:43;;;;;;;6.80;0.88;;;25.30;77.20;24.90;99162.00;;;;345351;28;92049;-94
2021/06/20 00:33:55;;;;;;;6.70;0.88;;;25.20;77.10;24.90;99173.00;;;;341706;28;83712;-94
2021/06/20 00:34:07;;;;;;;5.38;0.70;;;25.20;77.20;24.90;99173.00;;;;341330;28;92399;-95
2021/06/20 00:34:19;;;;;;;2.88;0.70;;;25.20;77.30;24.90;99171.00;;;;340235;28;83578;-93
2021/06/20 00:34:31;;;;;;;3.85;0.90;;;25.20;77.30;25.00;99168.00;;;;342537;28;90586;-96
2021/06/20 00:34:43;;;;;;;3.67;0.90;;;25.20;77.30;25.00;99171.00;;;;340346;28;84775;-95
2021/06/20 00:34:55;;;;;;;3.53;0.65;;;25.20;77.20;25.10;99171.00;;;;343199;28;92199;-94
2021/06/20 00:35:08;;;;;;;2.83;0.60;;;25.20;77.20;25.00;99173.00;;;;339058;28;83532;-94
2021/06/20 00:35:20;;;;;;;2.38;0.60;;;25.20;76.80;24.80;99170.00;;;;337308;28;91736;-95
2021/06/20 00:35:32;;;;;;;4.22;0.88;;;25.20;77.20;24.70;99174.00;;;;343015;28;85168;-95
2021/06/20 00:35:44;;;;;;;4.85;0.85;;;25.20;77.10;24.60;99178.00;;;;339829;28;92176;-95
2021/06/20 00:35:57;;;;;;;5.35;0.90;;;25.20;77.20;24.50;99161.00;;;;340245;28;83444;-94
2021/06/20 00:36:10;;;;;;;4.53;0.93;;;25.10;77.20;24.40;99170.00;;;;338658;28;90852;-94
2021/06/20 00:36:22;;;;;;;5.70;1.20;;;25.10;77.30;24.50;99175.00;;;;340278;28;83382;-96
2021/06/20 00:36:34;;;;;;;6.75;1.65;;;25.10;77.40;24.40;99172.00;;;;338666;28;89498;-95
2021/06/20 00:36:46;;;;;;;6.13;1.30;;;25.00;77.40;24.40;99170.00;;;;344323;28;83283;-94
2021/06/20 00:36:57;;;;;;;3.90;1.02;;;25.00;77.60;24.40;99179.00;;;;337248;28;91628;-93
2021/06/20 00:37:09;;;;;;;3.47;0.90;;;25.00;77.70;24.30;99178.00;;;;341459;28;83395;-93
2021/06/20 00:37:21;;;;;;;5.65;0.90;;;25.00;77.80;24.40;99175.00;;;;338463;28;90521;-94
2021/06/20 00:37:33;;;;;;;6.82;0.90;;;24.90;77.80;24.40;99188.00;;;;341584;28;84078;-96
2021/06/20 00:37:46;;;;;;;8.02;1.13;;;25.00;77.80;24.50;99179.00;;;;340037;28;91861;-95
2021/06/20 00:37:58;;;;;;;6.05;1.02;;;25.00;77.80;24.50;99184.00;;;;340450;28;84087;-94
2021/06/20 00:38:10;;;;;;;4.20;0.95;;;25.00;77.80;24.60;99183.00;;;;341395;28;91230;-95
2021/06/20 00:38:22;;;;;;;3.88;0.95;;;25.00;77.50;24.70;99185.00;;;;337443;28;83947;-95
2021/06/20 00:38:34;;;;;;;2.90;1.02;;;25.00;77.50;24.80;99184.00;;;;340024;28;89442;-95
2021/06/20 00:38:46;;;;;;;3.00;1.20;;;25.00;77.60;24.80;99182.00;;;;339034;28;84797;-95
2021/06/20 00:38:58;;;;;;;4.35;1.10;;;25.00;78.20;24.70;99186.00;;;;341255;28;93252;-95
2021/06/20 00:39:10;;;;;;;5.15;0.80;;;25.00;77.80;24.80;99182.00;;;;340304;28;83747;-96
2021/06/20 00:39:22;;;;;;;5.32;0.90;;;25.00;77.70;24.80;99181.00;;;;340001;28;91156;-96
2021/06/20 00:39:34;;;;;;;3.45;1.02;;;25.00;77.70;24.90;99185.00;;;;341631;28;85489;-95
2021/06/20 00:39:46;;;;;;;3.00;1.00;;;25.00;77.70;24.90;99188.00;;;;337321;28;91267;-95
2021/06/20 00:39:58;;;;;;;2.97;0.90;;;25.10;77.80;24.80;99184.00;;;;343060;28;83349;-95
2021/06/20 00:40:10;;;;;;;2.47;0.68;;;25.00;77.70;24.80;99187.00;;;;339737;28;90585;-95
2021/06/20 00:40:22;;;;;;;3.42;0.90;;;25.00;77.70;24.80;99182.00;;;;340298;28;85808;-96
2021/06/20 00:40:34;;;;;;;5.10;1.60;;;25.00;77.80;24.80;99186.00;;;;337415;28;89124;-96
2021/06/20 00:40:46;;;;;;;5.57;1.80;;;25.00;77.90;24.70;99194.00;;;;341716;28;85048;-95
2021/06/20 00:40:58;;;;;;;4.38;1.13;;;25.00;77.90;24.70;99186.00;;;;341104;28;91721;-94
2021/06/20 00:41:10;;;;;;;6.13;1.10;;;25.00;77.80;24.80;99181.00;;;;341631;28;83708;-95
2021/06/20 00:41:22;;;;;;;8.13;1.08;;;25.00;77.80;24.70;99186.00;;;;342029;28;92151;-94
2021/06/20 00:41:34;;;;;;;8.88;1.08;;;25.10;78.10;24.70;99187.00;;;;340404;28;82394;-95
2021/06/20 00:41:46;;;;;;;5.53;1.05;;;25.10;78.20;24.60;99200.00;;;;341225;28;92108;-94
2021/06/20 00:41:58;;;;;;;6.05;1.00;;;25.10;78.10;24.60;99183.00;;;;343016;28;83749;-95
2021/06/20 00:42:10;;;;;;;3.88;0.90;;;25.10;78.10;24.60;99188.00;;;;341380;28;90972;-95
2021/06/20 00:42:22;;;;;;;4.72;0.88;;;25.00;78.10;24.70;99192.00;;;;337632;28;84115;-95
2021/06/20 00:42:34;;;;;;;6.70;1.08;;;25.10;78.10;24.80;99186.00;;;;341349;28;91059;-96
2021/06/20 00:42:46;;;;;;;6.60;0.80;;;25.00;77.90;24.80;99190.00;;;;341608;28;84440;-95
2021/06/20 00:42:58;;;;;;;6.75;0.80;;;25.10;78.00;24.80;99188.00;;;;341194;28;93291;-96
2021/06/20 00:43:10;;;;;;;5.70;0.80;;;25.00;77.90;24.90;99184.00;;;;338924;28;84222;-95
2021/06/20 00:43:22;;;;;;;5.43;0.90;;;25.10;78.00;24.90;99188.00;;;;339783;28;90413;-95
2021/06/20 00:43:34;;;;;;;4.60;0.88;;;25.10;78.00;24.90;99186.00;;;;338979;28;83479;-96
2021/06/20 00:43:46;;;;;;;3.53;0.68;;;25.10;78.00;24.90;99185.00;;;;342254;28;91007;-96
2021/06/20 00:44:02;;;;;;;3.13;0.68;;;25.10;78.10;25.00;99194.00;;;;343208;28;83413;-95
2021/06/20 00:44:14;;;;;;;3.97;0.70;;;25.10;78.10;25.10;99192.00;;;;339974;28;92138;-96
2021/06/20 00:44:26;;;;;;;4.05;0.77;;;25.10;78.10;25.10;99195.00;;;;340270;28;84625;-96
2021/06/20 00:44:48;;;;;;;3.45;0.90;;;25.10;78.10;25.00;99192.00;;;;342645;28;91499;-96
2021/06/20 00:45:00;;;;;;;2.67;0.80;;;25.10;77.90;24.90;99189.00;;;;342779;28;83512;-96
2021/06/20 00:45:15;;;;;;;3.50;0.95;;;25.20;78.10;24.90;99190.00;;;;342535;28;92841;-95
2021/06/20 00:45:28;;;;;;;3.70;1.15;;;25.20;78.00;25.00;99184.00;;;;341654;28;84590;-95
2021/06/20 00:45:40;;;;;;;4.13;1.02;;;25.20;77.90;24.90;99186.00;;;;340950;28;90903;-95
2021/06/20 00:45:52;;;;;;;4.90;0.85;;;25.20;78.50;24.90;99189.00;;;;339901;28;83549;-95
2021/06/20 00:46:05;;;;;;;5.53;0.88;;;25.20;78.00;24.80;99188.00;;;;341324;28;91797;-95
2021/06/20 00:46:17;;;;;;;5.05;0.98;;;25.20;78.00;24.80;99191.00;;;;341605;28;85447;-93
2021/06/20 00:46:29;;;;;;;6.07;1.00;;;25.20;78.00;24.70;99186.00;;;;337235;28;90480;-96
2021/06/20 00:46:42;;;;;;;6.75;1.35;;;25.20;78.10;24.70;99191.00;;;;341491;28;84061;-95
2021/06/20 00:46:54;;;;;;;7.60;1.23;;;25.20;78.10;24.80;99184.00;;;;342311;28;91262;-95
2021/06/20 00:47:06;;;;;;;7.93;1.23;;;25.20;78.10;24.80;99188.00;;;;342877;28;83480;-95
2021/06/20 00:47:19;;;;;;;4.78;1.02;;;25.20;78.00;24.90;99188.00;;;;341142;28;93524;-96
2021/06/20 00:47:31;;;;;;;4.63;1.02;;;25.20;78.40;25.00;99180.00;;;;337655;28;84421;-96
2021/06/20 00:47:43;;;;;;;5.40;0.90;;;25.20;78.10;25.00;99183.00;;;;341148;28;91997;-95
2021/06/20 00:47:56;;;;;;;4.70;0.88;;;25.20;78.00;25.10;99180.00;;;;340258;28;83901;-94
2021/06/20 00:48:08;;;;;;;5.07;1.10;;;25.20;78.10;25.10;99179.00;;;;338674;28;91360;-96
2021/06/20 00:48:20;;;;;;;5.47;1.27;;;25.20;78.10;25.20;99179.00;;;;341587;28;84516;-95
2021/06/20 00:48:32;;;;;;;5.45;1.25;;;25.20;78.10;25.30;99181.00;;;;339980;28;92235;-96
2021/06/20 00:48:44;;;;;;;3.75;0.90;;;25.20;78.20;25.30;99181.00;;;;340316;28;85230;-95
2021/06/20 00:48:56;;;;;;;4.28;0.88;;;25.20;78.20;25.30;99181.00;;;;339905;28;91570;-91
2021/06/20 00:49:08;;;;;;;6.28;0.90;;;25.20;78.00;25.30;99181.00;;;;341615;28;85156;-95
2021/06/20 00:49:19;;;;;;;7.03;1.02;;;25.20;77.90;25.40;99179.00;;;;339815;28;93255;-95
2021/06/20 00:49:31;;;;;;;5.35;1.20;;;25.30;78.00;25.40;99177.00;;;;341498;28;84035;-95
2021/06/20 00:49:43;;;;;;;4.53;1.17;;;25.30;77.90;25.20;99179.00;;;;341121;28;89426;-94
2021/06/20 00:49:55;;;;;;;4.82;1.17;;;25.30;77.80;25.20;99166.00;;;;343643;28;84523;-95
2021/06/20 00:50:08;;;;;;;4.75;1.20;;;25.30;77.70;25.10;99175.00;;;;341344;28;92259;-96
2021/06/20 00:50:20;;;;;;;5.55;1.05;;;25.30;77.70;25.10;99185.00;;;;341523;28;84099;-95
2021/06/20 00:50:32;;;;;;;5.05;1.08;;;25.30;77.70;25.00;99166.00;;;;338635;28;92179;-95
2021/06/20 00:50:44;;;;;;;4.15;1.00;;;25.30;77.70;25.00;99167.00;;;;342761;28;83695;-95
2021/06/20 00:50:56;;;;;;;5.00;1.20;;;25.30;77.70;25.10;99173.00;;;;342621;28;90467;-95
2021/06/20 00:51:08;;;;;;;6.75;1.38;;;25.30;77.70;25.20;99174.00;;;;342947;28;85245;-95
2021/06/20 00:51:20;;;;;;;6.22;1.35;;;25.30;77.70;25.10;99168.00;;;;338540;28;93106;-95
2021/06/20 00:51:32;;;;;;;5.05;1.02;;;25.30;77.70;25.00;99169.00;;;;340251;28;85050;-95
2021/06/20 00:51:45;;;;;;;3.88;0.90;;;25.30;77.60;25.00;99174.00;;;;339849;28;90741;-95
2021/06/20 00:51:57;;;;;;;3.70;0.98;;;25.30;77.50;25.10;99168.00;;;;341636;28;83431;-94
2021/06/20 00:52:09;;;;;;;4.32;0.98;;;25.30;77.50;25.20;99175.00;;;;341276;28;92672;-95
2021/06/20 00:52:21;;;;;;;5.25;1.00;;;25.30;78.20;25.30;99173.00;;;;340268;28;83275;-95
2021/06/20 00:52:36;;;;;;;4.90;1.10;;;25.40;77.80;25.40;99174.00;;;;338619;28;91011;-96
2021/06/20 00:52:48;;;;;;;4.35;1.08;;;25.40;77.80;25.40;99171.00;;;;339808;28;85064;-94
2021/06/20 00:53:00;;;;;;;5.05;1.05;;;25.40;77.70;25.40;99171.00;;;;339878;28;92152;-95
2021/06/20 00:53:12;;;;;;;5.28;0.98;;;25.40;77.60;25.40;99168.00;;;;342779;28;85305;-96
2021/06/20 00:53:24;;;;;;;5.55;0.98;;;25.40;77.60;25.40;99166.00;;;;339872;28;94842;-96
2021/06/20 00:53:36;;;;;;;3.38;0.80;;;25.40;77.60;25.30;99177.00;;;;338897;28;85336;-96
2021/06/20 00:53:48;;;;;;;3.67;0.90;;;25.50;77.60;25.30;99173.00;;;;341137;28;92591;-94
2021/06/20 00:54:00;;;;;;;3.78;1.10;;;25.50;77.40;25.20;99174.00;;;;340290;28;84508;-95
2021/06/20 00:54:12;;;;;;;5.40;1.50;;;25.40;77.40;25.20;99178.00;;;;339979;28;93002;-96
2021/06/20 00:54:24;;;;;;;5.88;1.50;;;25.50;77.30;25.10;99174.00;;;;341575;28;84047;-95
2021/06/20 00:54:35;;;;;;;5.43;1.38;;;25.40;77.40;25.10;99166.00;;;;337252;28;92001;-95
2021/06/20 00:54:48;;;;;;;3.30;1.10;;;25.50;77.60;25.10;99168.00;;;;341593;28;85147;-95
2021/06/20 00:54:59;;;;;;;3.05;1.10;;;25.50;77.60;25.10;99175.00;;;;338376;28;89897;-96
2021/06/20 00:55:14;;;;;;;4.30;1.30;;;25.40;77.60;25.20;99180.00;;;;341516;28;83524;-96
2021/06/20 00:55:29;;;;;;;6.10;1.25;;;25.50;77.70;25.20;99174.00;;;;341187;28;93269;-95
2021/06/20 00:55:41;;;;;;;4.95;1.13;;;25.50;77.80;25.40;99173.00;;;;342959;28;84971;-93
2021/06/20 00:55:53;;;;;;;3.90;1.13;;;25.50;77.70;25.40;99177.00;;;;342118;28;91759;-95
2021/06/20 00:56:05;;;;;;;4.80;1.02;;;25.50;77.80;25.40;99179.00;;;;342949;28;84422;-95
2021/06/20 00:56:17;;;;;;;6.88;1.40;;;25.50;77.70;25.30;99171.00;;;;337040;28;90936;-95